Main page
METAR-TAF:

METAR-TAF

Airports :

Varna Airport

Varna, Bulgaria

latitude: 43-12N, longitude: 027-55E, elevation: 41 m

Current weather observation

The report was made 9 minutes ago, at 05:30 UTC
Wind 5 kt from the West/Southwest
Temperature 20°C
Humidity 88%
Pressure 1013 hPa
Visibility: 8000 m

METAR: LBWN 150530Z 24005KT 8000 NSC 20/18 Q1013 NOSIG

Time: 08:39 (05:39 UTC)

Forecast

The report was made 39 minutes ago, at 05:00 UTC
Forecast valid from 15 at 06 UTC to 16 at 06 UTC
Wind 4 kt from variable directions
Visibility 10 km or more
no clouds below 1500 m and no cumulonimbus
Becoming
from 15 at 08 UTC to 15 at 10 UTC
Wind 12 kt from the East
Scattered clouds at a height of 4500 ft
Becoming
from 15 at 18 UTC to 15 at 20 UTC
Wind 8 kt from the North

TAF: LBWN 150500Z 1506/1606 VRB04KT CAVOK BECMG 1508/1510 08012KT SCT045 BECMG 1518/1520 36008KT

Weather observations and forecasts of more than 4000 airports (METAR and TAF reports).

The available stations are represented by yellow and red dots on the map.

Hover mouse over dot to see the name of the station.

Then click to see weather observations and forecasts.

To change the map : click on the green buttons with a black cross to zoom in, on the green button with a dash to zoom out, or on the green arrows for adjacent maps.


METAR-TAF: